sensor_id;sensor_type;location;lat;lon;timestamp;temperature;humidity
34989;DHT22;21192;40.182;44.516;2023-04-25T00:01:32;15.30;99.90
34989;DHT22;21192;40.182;44.516;2023-04-25T00:04:01;15.30;99.90
34989;DHT22;21192;40.182;44.516;2023-04-25T00:06:28;15.10;99.90
34989;DHT22;21192;40.182;44.516;2023-04-25T00:08:55;15.20;99.90
34989;DHT22;21192;40.182;44.516;2023-04-25T00:11:22;15.10;99.90
34989;DHT22;21192;40.182;44.516;2023-04-25T00:13:48;15.20;99.90
34989;DHT22;21192;40.182;44.516;2023-04-25T00:16:16;15.20;99.90
34989;DHT22;21192;40.182;44.516;2023-04-25T00:18:42;15.30;99.90
34989;DHT22;21192;40.182;44.516;2023-04-25T00:21:08;15.40;99.90
34989;DHT22;21192;40.182;44.516;2023-04-25T00:23:34;15.40;99.90
34989;DHT22;21192;40.182;44.516;2023-04-25T00:26:02;15.30;99.90
34989;DHT22;21192;40.182;44.516;2023-04-25T00:28:28;15.30;99.90
34989;DHT22;21192;40.182;44.516;2023-04-25T00:30:54;15.30;99.90
34989;DHT22;21192;40.182;44.516;2023-04-25T00:33:20;15.30;99.90
34989;DHT22;21192;40.182;44.516;2023-04-25T00:35:46;15.30;99.90
34989;DHT22;21192;40.182;44.516;2023-04-25T00:38:12;15.20;99.90
34989;DHT22;21192;40.182;44.516;2023-04-25T00:40:38;15.30;99.90
34989;DHT22;21192;40.182;44.516;2023-04-25T00:43:04;15.30;99.90
34989;DHT22;21192;40.182;44.516;2023-04-25T00:45:30;15.40;99.90
34989;DHT22;21192;40.182;44.516;2023-04-25T00:47:56;15.30;99.90
34989;DHT22;21192;40.182;44.516;2023-04-25T00:50:22;15.30;99.90
34989;DHT22;21192;40.182;44.516;2023-04-25T00:52:48;15.30;99.90
34989;DHT22;21192;40.182;44.516;2023-04-25T00:55:14;15.40;99.90
34989;DHT22;21192;40.182;44.516;2023-04-25T00:57:42;15.30;99.90
34989;DHT22;21192;40.182;44.516;2023-04-25T01:00:08;15.30;99.90
34989;DHT22;21192;40.182;44.516;2023-04-25T01:02:35;15.30;99.90
34989;DHT22;21192;40.182;44.516;2023-04-25T01:05:03;15.30;99.90
34989;DHT22;21192;40.182;44.516;2023-04-25T01:07:29;15.30;99.90
34989;DHT22;21192;40.182;44.516;2023-04-25T01:09:56;15.30;99.90
34989;DHT22;21192;40.182;44.516;2023-04-25T01:12:22;15.30;99.90
34989;DHT22;21192;40.182;44.516;2023-04-25T01:14:48;15.30;99.90
34989;DHT22;21192;40.182;44.516;2023-04-25T01:17:15;15.30;99.90
34989;DHT22;21192;40.182;44.516;2023-04-25T01:19:42;15.30;99.90
34989;DHT22;21192;40.182;44.516;2023-04-25T01:22:08;15.30;99.90
34989;DHT22;21192;40.182;44.516;2023-04-25T01:24:37;15.20;99.90
34989;DHT22;21192;40.182;44.516;2023-04-25T01:27:03;15.10;99.90
34989;DHT22;21192;40.182;44.516;2023-04-25T01:29:29;15.10;99.90
34989;DHT22;21192;40.182;44.516;2023-04-25T01:31:55;15.00;99.90
34989;DHT22;21192;40.182;44.516;2023-04-25T01:34:24;15.00;99.90
34989;DHT22;21192;40.182;44.516;2023-04-25T01:36:51;15.10;99.90
34989;DHT22;21192;40.182;44.516;2023-04-25T01:39:17;15.10;99.90
34989;DHT22;21192;40.182;44.516;2023-04-25T01:41:44;15.10;99.90
34989;DHT22;21192;40.182;44.516;2023-04-25T01:44:10;15.10;99.90
34989;DHT22;21192;40.182;44.516;2023-04-25T01:46:36;15.20;99.90
34989;DHT22;21192;40.182;44.516;2023-04-25T01:49:02;15.20;99.90
34989;DHT22;21192;40.182;44.516;2023-04-25T01:51:28;15.20;99.90
34989;DHT22;21192;40.182;44.516;2023-04-25T01:53:55;15.20;99.90
34989;DHT22;21192;40.182;44.516;2023-04-25T01:56:22;15.30;99.90
34989;DHT22;21192;40.182;44.516;2023-04-25T01:58:48;15.30;99.90
34989;DHT22;21192;40.182;44.516;2023-04-25T02:01:14;15.40;99.90
34989;DHT22;21192;40.182;44.516;2023-04-25T02:03:40;15.40;99.90
34989;DHT22;21192;40.182;44.516;2023-04-25T02:06:06;15.40;99.90
34989;DHT22;21192;40.182;44.516;2023-04-25T02:08:31;15.50;99.90
34989;DHT22;21192;40.182;44.516;2023-04-25T02:10:57;15.30;99.90
34989;DHT22;21192;40.182;44.516;2023-04-25T02:13:23;15.30;99.90
34989;DHT22;21192;40.182;44.516;2023-04-25T02:15:49;15.30;99.90
34989;DHT22;21192;40.182;44.516;2023-04-25T02:18:15;15.30;99.90
34989;DHT22;21192;40.182;44.516;2023-04-25T02:20:45;15.30;99.90
34989;DHT22;21192;40.182;44.516;2023-04-25T02:23:11;15.40;99.90
34989;DHT22;21192;40.182;44.516;2023-04-25T02:25:36;15.40;99.90
34989;DHT22;21192;40.182;44.516;2023-04-25T02:28:02;15.30;99.90
34989;DHT22;21192;40.182;44.516;2023-04-25T02:30:28;15.30;99.90
34989;DHT22;21192;40.182;44.516;2023-04-25T02:32:54;15.30;99.90
34989;DHT22;21192;40.182;44.516;2023-04-25T02:35:20;15.30;99.90
34989;DHT22;21192;40.182;44.516;2023-04-25T02:37:46;15.30;99.90
34989;DHT22;21192;40.182;44.516;2023-04-25T02:40:12;15.30;99.90
34989;DHT22;21192;40.182;44.516;2023-04-25T02:42:38;15.30;99.90
34989;DHT22;21192;40.182;44.516;2023-04-25T02:45:04;15.40;99.90
34989;DHT22;21192;40.182;44.516;2023-04-25T02:47:30;15.40;99.90
34989;DHT22;21192;40.182;44.516;2023-04-25T02:49:56;15.50;99.90
34989;DHT22;21192;40.182;44.516;2023-04-25T02:52:22;15.50;99.90
34989;DHT22;21192;40.182;44.516;2023-04-25T02:54:47;15.50;99.90
34989;DHT22;21192;40.182;44.516;2023-04-25T02:57:13;15.50;99.90
34989;DHT22;21192;40.182;44.516;2023-04-25T02:59:40;15.50;99.90
34989;DHT22;21192;40.182;44.516;2023-04-25T03:02:06;15.60;99.90
34989;DHT22;21192;40.182;44.516;2023-04-25T03:04:31;15.70;99.90
34989;DHT22;21192;40.182;44.516;2023-04-25T03:06:58;15.80;99.90
34989;DHT22;21192;40.182;44.516;2023-04-25T03:09:25;16.00;99.90
34989;DHT22;21192;40.182;44.516;2023-04-25T03:11:50;16.20;99.90
34989;DHT22;21192;40.182;44.516;2023-04-25T03:14:16;16.40;99.90
34989;DHT22;21192;40.182;44.516;2023-04-25T03:16:42;17.00;99.90
34989;DHT22;21192;40.182;44.516;2023-04-25T03:19:08;18.20;99.90
34989;DHT22;21192;40.182;44.516;2023-04-25T03:21:35;19.70;99.90
34989;DHT22;21192;40.182;44.516;2023-04-25T03:24:02;21.00;99.90
34989;DHT22;21192;40.182;44.516;2023-04-25T03:26:28;22.20;99.90
34989;DHT22;21192;40.182;44.516;2023-04-25T03:28:54;23.00;99.90
34989;DHT22;21192;40.182;44.516;2023-04-25T03:31:20;22.70;99.00
34989;DHT22;21192;40.182;44.516;2023-04-25T03:33:47;22.40;97.40
34989;DHT22;21192;40.182;44.516;2023-04-25T03:36:14;21.90;97.20
34989;DHT22;21192;40.182;44.516;2023-04-25T03:38:40;21.40;97.70
34989;DHT22;21192;40.182;44.516;2023-04-25T03:41:07;21.20;98.50
34989;DHT22;21192;40.182;44.516;2023-04-25T03:43:33;21.60;99.20
34989;DHT22;21192;40.182;44.516;2023-04-25T03:46:00;23.00;98.90
34989;DHT22;21192;40.182;44.516;2023-04-25T03:48:26;24.50;96.10
34989;DHT22;21192;40.182;44.516;2023-04-25T03:50:53;26.20;92.00
34989;DHT22;21192;40.182;44.516;2023-04-25T03:53:19;28.00;84.50
34989;DHT22;21192;40.182;44.516;2023-04-25T03:55:45;29.70;75.50
34989;DHT22;21192;40.182;44.516;2023-04-25T03:58:11;30.70;67.30
34989;DHT22;21192;40.182;44.516;2023-04-25T04:00:37;31.90;61.10
34989;DHT22;21192;40.182;44.516;2023-04-25T04:03:03;32.90;57.60
34989;DHT22;21192;40.182;44.516;2023-04-25T04:05:29;33.70;54.70
34989;DHT22;21192;40.182;44.516;2023-04-25T04:07:55;34.40;52.30
34989;DHT22;21192;40.182;44.516;2023-04-25T04:10:21;35.20;50.60
34989;DHT22;21192;40.182;44.516;2023-04-25T04:12:47;36.00;48.50
34989;DHT22;21192;40.182;44.516;2023-04-25T04:15:13;36.70;46.90
34989;DHT22;21192;40.182;44.516;2023-04-25T04:17:39;37.20;45.50
34989;DHT22;21192;40.182;44.516;2023-04-25T04:20:06;37.60;44.40
34989;DHT22;21192;40.182;44.516;2023-04-25T04:22:33;38.00;43.50
34989;DHT22;21192;40.182;44.516;2023-04-25T04:24:58;37.70;43.20
34989;DHT22;21192;40.182;44.516;2023-04-25T04:27:24;37.60;42.30
34989;DHT22;21192;40.182;44.516;2023-04-25T04:29:50;37.90;42.20
34989;DHT22;21192;40.182;44.516;2023-04-25T04:32:17;37.60;42.30
34989;DHT22;21192;40.182;44.516;2023-04-25T04:34:43;37.60;42.40
34989;DHT22;21192;40.182;44.516;2023-04-25T04:37:10;36.50;42.80
34989;DHT22;21192;40.182;44.516;2023-04-25T04:39:38;36.00;43.90
34989;DHT22;21192;40.182;44.516;2023-04-25T04:42:04;35.50;44.30
34989;DHT22;21192;40.182;44.516;2023-04-25T04:44:31;35.30;44.80
34989;DHT22;21192;40.182;44.516;2023-04-25T04:47:01;35.10;45.20
34989;DHT22;21192;40.182;44.516;2023-04-25T04:49:27;35.30;45.50
34989;DHT22;21192;40.182;44.516;2023-04-25T04:51:53;35.70;45.00
34989;DHT22;21192;40.182;44.516;2023-04-25T04:54:20;36.10;44.30
34989;DHT22;21192;40.182;44.516;2023-04-25T04:56:46;35.60;43.80
34989;DHT22;21192;40.182;44.516;2023-04-25T04:59:11;36.00;43.70
34989;DHT22;21192;40.182;44.516;2023-04-25T05:01:37;36.40;43.20
34989;DHT22;21192;40.182;44.516;2023-04-25T05:04:03;36.70;42.80
34989;DHT22;21192;40.182;44.516;2023-04-25T05:06:30;36.90;42.20
34989;DHT22;21192;40.182;44.516;2023-04-25T05:08:57;37.60;41.40
34989;DHT22;21192;40.182;44.516;2023-04-25T05:11:23;38.20;40.60
34989;DHT22;21192;40.182;44.516;2023-04-25T05:13:52;38.30;40.10
34989;DHT22;21192;40.182;44.516;2023-04-25T05:16:18;37.90;40.10
34989;DHT22;21192;40.182;44.516;2023-04-25T05:18:46;37.10;40.80
34989;DHT22;21192;40.182;44.516;2023-04-25T05:21:12;36.50;41.50
34989;DHT22;21192;40.182;44.516;2023-04-25T05:23:38;35.80;42.10
34989;DHT22;21192;40.182;44.516;2023-04-25T05:26:04;35.10;43.00
34989;DHT22;21192;40.182;44.516;2023-04-25T05:28:31;34.10;43.90
34989;DHT22;21192;40.182;44.516;2023-04-25T05:30:57;33.20;44.80
34989;DHT22;21192;40.182;44.516;2023-04-25T05:33:23;32.30;46.30
34989;DHT22;21192;40.182;44.516;2023-04-25T05:35:49;31.60;47.40
34989;DHT22;21192;40.182;44.516;2023-04-25T05:38:15;30.40;48.90
34989;DHT22;21192;40.182;44.516;2023-04-25T05:40:41;29.60;50.20
34989;DHT22;21192;40.182;44.516;2023-04-25T05:43:08;29.00;51.70
34989;DHT22;21192;40.182;44.516;2023-04-25T05:45:33;28.40;52.90
34989;DHT22;21192;40.182;44.516;2023-04-25T05:47:59;28.00;53.30
34989;DHT22;21192;40.182;44.516;2023-04-25T05:50:25;27.50;54.20
34989;DHT22;21192;40.182;44.516;2023-04-25T05:52:51;27.10;55.20
34989;DHT22;21192;40.182;44.516;2023-04-25T05:55:17;26.60;55.90
34989;DHT22;21192;40.182;44.516;2023-04-25T05:57:43;26.50;56.50
34989;DHT22;21192;40.182;44.516;2023-04-25T06:00:12;26.30;56.60
34989;DHT22;21192;40.182;44.516;2023-04-25T06:02:38;26.00;56.80
34989;DHT22;21192;40.182;44.516;2023-04-25T06:05:04;25.90;57.20
34989;DHT22;21192;40.182;44.516;2023-04-25T06:07:30;26.00;57.50
34989;DHT22;21192;40.182;44.516;2023-04-25T06:09:56;25.80;57.70
34989;DHT22;21192;40.182;44.516;2023-04-25T06:12:22;25.70;57.80
34989;DHT22;21192;40.182;44.516;2023-04-25T06:14:48;25.50;58.20
34989;DHT22;21192;40.182;44.516;2023-04-25T06:17:14;25.10;58.70
34989;DHT22;21192;40.182;44.516;2023-04-25T06:19:40;25.00;59.30
34989;DHT22;21192;40.182;44.516;2023-04-25T06:22:07;24.90;59.90
34989;DHT22;21192;40.182;44.516;2023-04-25T06:24:33;24.90;60.30
34989;DHT22;21192;40.182;44.516;2023-04-25T06:26:59;24.80;60.70
34989;DHT22;21192;40.182;44.516;2023-04-25T06:29:25;24.70;60.20
34989;DHT22;21192;40.182;44.516;2023-04-25T06:31:51;24.60;59.10
34989;DHT22;21192;40.182;44.516;2023-04-25T06:34:17;24.50;58.20
34989;DHT22;21192;40.182;44.516;2023-04-25T06:36:43;24.50;57.80
34989;DHT22;21192;40.182;44.516;2023-04-25T06:39:10;24.60;56.90
34989;DHT22;21192;40.182;44.516;2023-04-25T06:41:36;24.40;56.80
34989;DHT22;21192;40.182;44.516;2023-04-25T06:44:02;24.30;56.50
34989;DHT22;21192;40.182;44.516;2023-04-25T06:46:28;24.10;55.90
34989;DHT22;21192;40.182;44.516;2023-04-25T06:48:54;24.10;56.80
34989;DHT22;21192;40.182;44.516;2023-04-25T06:51:20;24.00;57.10
34989;DHT22;21192;40.182;44.516;2023-04-25T06:53:45;23.80;57.60
34989;DHT22;21192;40.182;44.516;2023-04-25T06:56:11;23.70;57.20
34989;DHT22;21192;40.182;44.516;2023-04-25T06:58:37;23.60;54.50
34989;DHT22;21192;40.182;44.516;2023-04-25T07:01:03;23.60;53.40
34989;DHT22;21192;40.182;44.516;2023-04-25T07:03:29;23.70;52.10
34989;DHT22;21192;40.182;44.516;2023-04-25T07:05:55;23.80;51.40
34989;DHT22;21192;40.182;44.516;2023-04-25T07:08:21;23.80;50.20
34989;DHT22;21192;40.182;44.516;2023-04-25T07:10:47;23.70;50.30
34989;DHT22;21192;40.182;44.516;2023-04-25T07:13:13;23.80;51.60
34989;DHT22;21192;40.182;44.516;2023-04-25T07:15:39;23.80;52.70
34989;DHT22;21192;40.182;44.516;2023-04-25T07:18:05;23.80;53.10
34989;DHT22;21192;40.182;44.516;2023-04-25T07:20:31;23.70;53.50
34989;DHT22;21192;40.182;44.516;2023-04-25T07:22:58;23.50;52.90
34989;DHT22;21192;40.182;44.516;2023-04-25T07:25:24;23.40;53.00
34989;DHT22;21192;40.182;44.516;2023-04-25T07:27:50;23.30;53.80
34989;DHT22;21192;40.182;44.516;2023-04-25T07:30:16;23.30;54.60
34989;DHT22;21192;40.182;44.516;2023-04-25T07:32:41;23.30;55.00
34989;DHT22;21192;40.182;44.516;2023-04-25T07:35:07;23.20;55.50
34989;DHT22;21192;40.182;44.516;2023-04-25T07:37:34;23.10;56.50
34989;DHT22;21192;40.182;44.516;2023-04-25T07:40:01;22.90;57.10
34989;DHT22;21192;40.182;44.516;2023-04-25T07:42:29;22.80;56.80
34989;DHT22;21192;40.182;44.516;2023-04-25T07:44:54;22.70;57.20
34989;DHT22;21192;40.182;44.516;2023-04-25T07:47:20;22.50;57.40
34989;DHT22;21192;40.182;44.516;2023-04-25T07:49:46;22.60;58.00
34989;DHT22;21192;40.182;44.516;2023-04-25T07:52:12;22.70;57.70
34989;DHT22;21192;40.182;44.516;2023-04-25T07:54:38;22.90;57.00
34989;DHT22;21192;40.182;44.516;2023-04-25T07:57:04;23.10;56.70
34989;DHT22;21192;40.182;44.516;2023-04-25T07:59:32;23.20;56.60
34989;DHT22;21192;40.182;44.516;2023-04-25T08:01:57;23.00;56.00
34989;DHT22;21192;40.182;44.516;2023-04-25T08:04:24;23.00;54.50
34989;DHT22;21192;40.182;44.516;2023-04-25T08:06:51;23.00;53.40
34989;DHT22;21192;40.182;44.516;2023-04-25T08:09:18;22.90;52.00
34989;DHT22;21192;40.182;44.516;2023-04-25T08:11:44;22.80;51.40
34989;DHT22;21192;40.182;44.516;2023-04-25T08:14:10;22.90;51.30
34989;DHT22;21192;40.182;44.516;2023-04-25T08:16:36;22.80;52.00
34989;DHT22;21192;40.182;44.516;2023-04-25T08:19:02;22.80;52.30
34989;DHT22;21192;40.182;44.516;2023-04-25T08:21:28;22.70;51.90
34989;DHT22;21192;40.182;44.516;2023-04-25T08:23:54;22.70;51.90
34989;DHT22;21192;40.182;44.516;2023-04-25T08:26:20;22.70;50.50
34989;DHT22;21192;40.182;44.516;2023-04-25T08:28:46;22.60;50.80
34989;DHT22;21192;40.182;44.516;2023-04-25T08:31:12;22.60;50.10
34989;DHT22;21192;40.182;44.516;2023-04-25T08:33:38;22.80;49.40
34989;DHT22;21192;40.182;44.516;2023-04-25T08:36:04;23.00;48.80
34989;DHT22;21192;40.182;44.516;2023-04-25T08:38:30;23.10;48.10
34989;DHT22;21192;40.182;44.516;2023-04-25T08:40:56;22.90;48.30
34989;DHT22;21192;40.182;44.516;2023-04-25T08:43:25;22.70;49.20
34989;DHT22;21192;40.182;44.516;2023-04-25T08:45:53;22.60;49.10
34989;DHT22;21192;40.182;44.516;2023-04-25T08:48:23;22.50;49.70
34989;DHT22;21192;40.182;44.516;2023-04-25T08:50:52;22.50;49.20
34989;DHT22;21192;40.182;44.516;2023-04-25T08:53:30;22.50;49.10
34989;DHT22;21192;40.182;44.516;2023-04-25T08:55:57;22.50;48.80
34989;DHT22;21192;40.182;44.516;2023-04-25T08:58:24;22.70;48.70
34989;DHT22;21192;40.182;44.516;2023-04-25T09:00:51;22.80;48.50
34989;DHT22;21192;40.182;44.516;2023-04-25T09:03:17;22.90;47.80
34989;DHT22;21192;40.182;44.516;2023-04-25T09:05:44;22.80;47.00
34989;DHT22;21192;40.182;44.516;2023-04-25T09:08:10;22.60;46.70
34989;DHT22;21192;40.182;44.516;2023-04-25T09:10:36;22.40;47.00
34989;DHT22;21192;40.182;44.516;2023-04-25T09:15:32;22.30;47.70
34989;DHT22;21192;40.182;44.516;2023-04-25T09:18:05;22.40;47.10
34989;DHT22;21192;40.182;44.516;2023-04-25T09:20:31;22.30;46.90
34989;DHT22;21192;40.182;44.516;2023-04-25T09:23:04;22.40;46.80
34989;DHT22;21192;40.182;44.516;2023-04-25T09:25:37;22.40;46.50
34989;DHT22;21192;40.182;44.516;2023-04-25T09:28:05;22.50;46.50
34989;DHT22;21192;40.182;44.516;2023-04-25T09:30:34;22.60;46.60
34989;DHT22;21192;40.182;44.516;2023-04-25T09:33:07;22.60;46.50
34989;DHT22;21192;40.182;44.516;2023-04-25T09:35:38;22.70;46.70
34989;DHT22;21192;40.182;44.516;2023-04-25T09:40:34;22.60;46.90
34989;DHT22;21192;40.182;44.516;2023-04-25T09:43:24;22.50;46.90
34989;DHT22;21192;40.182;44.516;2023-04-25T09:45:53;22.50;46.60
34989;DHT22;21192;40.182;44.516;2023-04-25T09:48:24;22.70;46.50
34989;DHT22;21192;40.182;44.516;2023-04-25T09:51:10;22.80;46.80
34989;DHT22;21192;40.182;44.516;2023-04-25T09:53:39;23.00;46.90
34989;DHT22;21192;40.182;44.516;2023-04-25T09:56:07;23.00;46.70
34989;DHT22;21192;40.182;44.516;2023-04-25T09:58:35;23.20;46.70
34989;DHT22;21192;40.182;44.516;2023-04-25T10:01:03;23.20;46.20
34989;DHT22;21192;40.182;44.516;2023-04-25T10:03:35;23.00;46.00
34989;DHT22;21192;40.182;44.516;2023-04-25T10:06:07;22.80;46.10
34989;DHT22;21192;40.182;44.516;2023-04-25T10:08:46;22.80;46.30
34989;DHT22;21192;40.182;44.516;2023-04-25T10:11:17;22.90;46.50
34989;DHT22;21192;40.182;44.516;2023-04-25T10:13:46;23.00;46.40
34989;DHT22;21192;40.182;44.516;2023-04-25T10:16:14;23.10;46.40
34989;DHT22;21192;40.182;44.516;2023-04-25T10:18:42;23.00;45.90
34989;DHT22;21192;40.182;44.516;2023-04-25T10:21:10;23.00;46.00
34989;DHT22;21192;40.182;44.516;2023-04-25T10:23:37;23.10;46.00
34989;DHT22;21192;40.182;44.516;2023-04-25T10:26:08;23.30;46.10
34989;DHT22;21192;40.182;44.516;2023-04-25T10:28:58;23.40;46.20
34989;DHT22;21192;40.182;44.516;2023-04-25T10:31:25;23.40;45.80
34989;DHT22;21192;40.182;44.516;2023-04-25T10:33:56;23.50;45.70
34989;DHT22;21192;40.182;44.516;2023-04-25T10:36:24;23.50;45.60
34989;DHT22;21192;40.182;44.516;2023-04-25T10:39:26;23.50;45.40
34989;DHT22;21192;40.182;44.516;2023-04-25T10:42:05;23.60;45.20
34989;DHT22;21192;40.182;44.516;2023-04-25T10:45:08;23.60;45.40
34989;DHT22;21192;40.182;44.516;2023-04-25T10:47:57;23.50;44.80
34989;DHT22;21192;40.182;44.516;2023-04-25T10:50:44;23.50;44.90
34989;DHT22;21192;40.182;44.516;2023-04-25T10:53:14;23.70;44.80
34989;DHT22;21192;40.182;44.516;2023-04-25T10:55:53;23.70;44.30
34989;DHT22;21192;40.182;44.516;2023-04-25T10:58:52;23.60;43.90
34989;DHT22;21192;40.182;44.516;2023-04-25T11:01:58;23.70;43.80
34989;DHT22;21192;40.182;44.516;2023-04-25T11:04:34;23.70;44.10
34989;DHT22;21192;40.182;44.516;2023-04-25T11:07:22;23.70;44.30
34989;DHT22;21192;40.182;44.516;2023-04-25T11:09:49;23.60;44.40
34989;DHT22;21192;40.182;44.516;2023-04-25T11:12:15;23.50;44.50
34989;DHT22;21192;40.182;44.516;2023-04-25T11:14:43;23.40;44.80
34989;DHT22;21192;40.182;44.516;2023-04-25T11:17:09;23.40;44.90
34989;DHT22;21192;40.182;44.516;2023-04-25T11:20:02;23.50;44.90
34989;DHT22;21192;40.182;44.516;2023-04-25T11:23:07;23.40;44.40
34989;DHT22;21192;40.182;44.516;2023-04-25T11:25:35;23.40;44.30
34989;DHT22;21192;40.182;44.516;2023-04-25T11:28:03;23.40;43.90
34989;DHT22;21192;40.182;44.516;2023-04-25T11:30:30;23.50;43.90
34989;DHT22;21192;40.182;44.516;2023-04-25T11:32:56;23.50;44.00
34989;DHT22;21192;40.182;44.516;2023-04-25T11:35:43;23.60;44.20
34989;DHT22;21192;40.182;44.516;2023-04-25T11:38:10;23.70;44.20
34989;DHT22;21192;40.182;44.516;2023-04-25T11:40:36;23.70;44.20
34989;DHT22;21192;40.182;44.516;2023-04-25T11:43:02;23.70;44.90
34989;DHT22;21192;40.182;44.516;2023-04-25T11:45:28;23.70;44.40
34989;DHT22;21192;40.182;44.516;2023-04-25T11:47:56;23.70;44.20
34989;DHT22;21192;40.182;44.516;2023-04-25T11:50:23;23.70;44.20
34989;DHT22;21192;40.182;44.516;2023-04-25T11:52:49;23.80;44.10
34989;DHT22;21192;40.182;44.516;2023-04-25T11:55:18;23.80;44.00
34989;DHT22;21192;40.182;44.516;2023-04-25T11:57:47;24.00;44.10
34989;DHT22;21192;40.182;44.516;2023-04-25T12:00:19;24.10;44.00
34989;DHT22;21192;40.182;44.516;2023-04-25T12:02:52;24.20;44.20
34989;DHT22;21192;40.182;44.516;2023-04-25T12:05:19;24.10;43.90
34989;DHT22;21192;40.182;44.516;2023-04-25T12:07:46;24.00;43.80
34989;DHT22;21192;40.182;44.516;2023-04-25T12:10:14;24.00;43.60
34989;DHT22;21192;40.182;44.516;2023-04-25T12:12:45;23.90;42.70
34989;DHT22;21192;40.182;44.516;2023-04-25T12:15:15;23.70;42.60
34989;DHT22;21192;40.182;44.516;2023-04-25T12:17:53;23.70;42.50
34989;DHT22;21192;40.182;44.516;2023-04-25T12:20:23;23.70;42.20
34989;DHT22;21192;40.182;44.516;2023-04-25T12:22:50;23.80;42.40
34989;DHT22;21192;40.182;44.516;2023-04-25T12:25:38;23.80;42.10
34989;DHT22;21192;40.182;44.516;2023-04-25T12:28:19;23.80;42.10
34989;DHT22;21192;40.182;44.516;2023-04-25T12:31:02;23.80;42.20
34989;DHT22;21192;40.182;44.516;2023-04-25T12:33:34;23.70;42.20
34989;DHT22;21192;40.182;44.516;2023-04-25T12:36:02;23.60;42.20
34989;DHT22;21192;40.182;44.516;2023-04-25T12:38:37;23.60;42.10
34989;DHT22;21192;40.182;44.516;2023-04-25T12:41:03;23.50;42.10
34989;DHT22;21192;40.182;44.516;2023-04-25T12:43:29;23.50;42.70
34989;DHT22;21192;40.182;44.516;2023-04-25T12:45:56;23.50;42.60
34989;DHT22;21192;40.182;44.516;2023-04-25T12:48:22;23.50;42.20
34989;DHT22;21192;40.182;44.516;2023-04-25T12:50:51;23.50;42.20
34989;DHT22;21192;40.182;44.516;2023-04-25T12:53:21;23.50;42.40
34989;DHT22;21192;40.182;44.516;2023-04-25T12:55:48;23.40;42.10
34989;DHT22;21192;40.182;44.516;2023-04-25T12:58:15;23.30;41.80
34989;DHT22;21192;40.182;44.516;2023-04-25T13:00:41;23.30;41.70
34989;DHT22;21192;40.182;44.516;2023-04-25T13:03:07;23.20;41.50
34989;DHT22;21192;40.182;44.516;2023-04-25T13:05:33;23.30;41.90
34989;DHT22;21192;40.182;44.516;2023-04-25T13:07:59;23.30;41.30
34989;DHT22;21192;40.182;44.516;2023-04-25T13:10:25;23.30;41.10
34989;DHT22;21192;40.182;44.516;2023-04-25T13:12:51;23.20;41.10
34989;DHT22;21192;40.182;44.516;2023-04-25T13:15:17;23.20;41.10
34989;DHT22;21192;40.182;44.516;2023-04-25T13:17:43;23.30;41.70
34989;DHT22;21192;40.182;44.516;2023-04-25T13:20:09;23.30;41.70
34989;DHT22;21192;40.182;44.516;2023-04-25T13:22:39;23.20;41.80
34989;DHT22;21192;40.182;44.516;2023-04-25T13:25:06;23.20;41.90
34989;DHT22;21192;40.182;44.516;2023-04-25T13:27:33;23.10;42.20
34989;DHT22;21192;40.182;44.516;2023-04-25T13:30:02;23.10;42.50
34989;DHT22;21192;40.182;44.516;2023-04-25T13:32:37;23.00;42.60
34989;DHT22;21192;40.182;44.516;2023-04-25T13:35:04;23.00;42.90
34989;DHT22;21192;40.182;44.516;2023-04-25T13:37:30;22.90;43.10
34989;DHT22;21192;40.182;44.516;2023-04-25T13:40:02;22.90;43.00
34989;DHT22;21192;40.182;44.516;2023-04-25T13:42:33;22.80;43.00
34989;DHT22;21192;40.182;44.516;2023-04-25T13:44:59;22.70;43.10
34989;DHT22;21192;40.182;44.516;2023-04-25T13:47:25;22.80;42.90
34989;DHT22;21192;40.182;44.516;2023-04-25T13:49:51;22.80;42.50
34989;DHT22;21192;40.182;44.516;2023-04-25T13:52:17;22.90;42.30
34989;DHT22;21192;40.182;44.516;2023-04-25T13:54:43;22.80;42.20
34989;DHT22;21192;40.182;44.516;2023-04-25T13:57:09;22.90;42.40
34989;DHT22;21192;40.182;44.516;2023-04-25T13:59:37;22.90;43.00
34989;DHT22;21192;40.182;44.516;2023-04-25T14:02:02;22.90;42.70
34989;DHT22;21192;40.182;44.516;2023-04-25T14:04:28;22.90;42.50
34989;DHT22;21192;40.182;44.516;2023-04-25T14:06:55;22.80;42.60
34989;DHT22;21192;40.182;44.516;2023-04-25T14:09:21;22.80;42.80
34989;DHT22;21192;40.182;44.516;2023-04-25T14:11:51;22.80;42.80
34989;DHT22;21192;40.182;44.516;2023-04-25T14:14:20;22.80;42.80
34989;DHT22;21192;40.182;44.516;2023-04-25T14:16:47;22.80;42.70
34989;DHT22;21192;40.182;44.516;2023-04-25T14:19:14;22.80;42.70
34989;DHT22;21192;40.182;44.516;2023-04-25T14:21:40;22.80;42.80
34989;DHT22;21192;40.182;44.516;2023-04-25T14:24:06;22.80;43.00
34989;DHT22;21192;40.182;44.516;2023-04-25T14:26:35;22.90;43.10
34989;DHT22;21192;40.182;44.516;2023-04-25T14:29:01;22.90;43.10
34989;DHT22;21192;40.182;44.516;2023-04-25T14:31:27;22.90;43.30
34989;DHT22;21192;40.182;44.516;2023-04-25T14:33:53;22.90;43.40
34989;DHT22;21192;40.182;44.516;2023-04-25T14:36:19;22.80;43.20
34989;DHT22;21192;40.182;44.516;2023-04-25T14:38:45;22.70;43.50
34989;DHT22;21192;40.182;44.516;2023-04-25T14:41:12;22.60;43.90
34989;DHT22;21192;40.182;44.516;2023-04-25T14:43:38;22.40;44.50
34989;DHT22;21192;40.182;44.516;2023-04-25T14:46:06;22.20;45.00
34989;DHT22;21192;40.182;44.516;2023-04-25T14:48:32;22.10;45.20
34989;DHT22;21192;40.182;44.516;2023-04-25T14:50:59;22.20;45.40
34989;DHT22;21192;40.182;44.516;2023-04-25T14:53:28;22.20;45.50
34989;DHT22;21192;40.182;44.516;2023-04-25T14:55:54;22.20;45.60
34989;DHT22;21192;40.182;44.516;2023-04-25T14:58:20;22.20;45.50
34989;DHT22;21192;40.182;44.516;2023-04-25T15:00:46;22.20;45.40
34989;DHT22;21192;40.182;44.516;2023-04-25T15:03:12;22.20;45.50
34989;DHT22;21192;40.182;44.516;2023-04-25T15:05:39;22.10;45.40
34989;DHT22;21192;40.182;44.516;2023-04-25T15:08:06;22.00;45.50
34989;DHT22;21192;40.182;44.516;2023-04-25T15:10:32;21.90;45.60
34989;DHT22;21192;40.182;44.516;2023-04-25T15:12:58;21.90;45.50
34989;DHT22;21192;40.182;44.516;2023-04-25T15:15:24;21.90;45.60
34989;DHT22;21192;40.182;44.516;2023-04-25T15:17:50;21.90;45.70
34989;DHT22;21192;40.182;44.516;2023-04-25T15:20:16;21.80;45.80
34989;DHT22;21192;40.182;44.516;2023-04-25T15:22:43;21.70;46.00
34989;DHT22;21192;40.182;44.516;2023-04-25T15:25:11;21.60;46.20